Time;durP1;ratioP1;P1;durP2;ratioP2;P2;SDS_P1;SDS_P2;PMS_P1;PMS_P2;Temp;Humidity;BMP_temperature;BMP_pressure;BME280_temperature;BME280_humidity;BME280_pressure;Samples;Min_cycle;Max_cycle;Signal;HPM_P1;HPM_P2
2021/07/26 00:02:03;;;;;;;5.97;3.55;;;18.00;99.90;;;;;;5085265;28;20047;-71
2021/07/26 00:04:29;;;;;;;6.45;3.38;;;17.90;99.90;;;;;;5084299;28;20131;-70
2021/07/26 00:06:55;;;;;;;9.52;3.60;;;17.90;99.90;;;;;;5083153;28;20407;-72
2021/07/26 00:09:20;;;;;;;6.03;3.30;;;18.00;99.90;;;;;;5083346;28;20040;-71
2021/07/26 00:11:46;;;;;;;6.85;3.10;;;17.90;99.90;;;;;;5081717;28;20151;-71
2021/07/26 00:14:11;;;;;;;6.82;3.30;;;17.90;99.90;;;;;;5053831;28;20043;-71
2021/07/26 00:16:37;;;;;;;7.35;3.95;;;17.90;99.90;;;;;;5082350;28;20113;-71
2021/07/26 00:19:02;;;;;;;8.60;3.47;;;17.90;99.90;;;;;;5086678;28;20071;-71
2021/07/26 00:21:28;;;;;;;4.43;3.25;;;17.90;99.90;;;;;;5085563;28;20024;-71
2021/07/26 00:23:54;;;;;;;6.10;3.42;;;17.90;99.90;;;;;;5086415;28;20051;-71
2021/07/26 00:26:19;;;;;;;5.85;3.20;;;17.90;99.90;;;;;;5082114;28;20032;-71
2021/07/26 00:28:45;;;;;;;7.80;3.67;;;17.90;99.90;;;;;;5086149;28;20369;-71
2021/07/26 00:31:10;;;;;;;8.70;3.60;;;17.90;99.90;;;;;;5079004;28;20028;-71
2021/07/26 00:34:10;;;;;;;8.07;3.70;;;17.80;99.90;;;;;;5064398;28;20037;-71
2021/07/26 00:36:43;;;;;;;5.80;3.20;;;17.90;99.90;;;;;;5083902;28;20496;-71
2021/07/26 00:39:11;;;;;;;5.72;3.40;;;17.90;99.90;;;;;;5077243;28;20432;-72
2021/07/26 00:41:37;;;;;;;7.22;3.63;;;17.90;99.90;;;;;;5074756;28;20040;-71
2021/07/26 00:44:04;;;;;;;5.63;3.35;;;17.80;99.90;;;;;;5087858;28;20055;-71
2021/07/26 00:46:29;;;;;;;8.07;3.33;;;17.80;99.90;;;;;;5086470;28;20070;-71
2021/07/26 00:48:56;;;;;;;5.72;3.17;;;17.80;99.90;;;;;;5088942;28;20044;-71
2021/07/26 00:51:22;;;;;;;6.65;3.53;;;17.90;99.90;;;;;;5088627;28;20032;-73
2021/07/26 00:53:48;;;;;;;7.15;3.10;;;17.90;99.90;;;;;;5086681;28;20040;-71
2021/07/26 00:56:15;;;;;;;7.72;4.05;;;17.90;99.90;;;;;;5082898;28;20555;-72
2021/07/26 00:58:41;;;;;;;5.90;3.33;;;17.90;99.90;;;;;;5061406;28;20496;-70
2021/07/26 01:01:07;;;;;;;7.78;3.25;;;17.90;99.90;;;;;;5086730;28;20028;-71
2021/07/26 01:03:33;;;;;;;4.85;3.28;;;17.90;99.90;;;;;;5064055;28;20059;-71
2021/07/26 01:05:58;;;;;;;9.05;3.22;;;17.90;99.90;;;;;;5051922;28;20793;-71
2021/07/26 01:08:24;;;;;;;8.52;3.75;;;17.80;99.90;;;;;;5088211;28;20044;-71
2021/07/26 01:10:50;;;;;;;7.05;3.30;;;17.80;99.90;;;;;;5089218;28;20493;-71
2021/07/26 01:13:15;;;;;;;8.80;3.60;;;17.80;99.90;;;;;;5088361;28;20062;-71
2021/07/26 01:15:41;;;;;;;7.45;3.47;;;17.80;99.90;;;;;;5089051;28;20429;-71
2021/07/26 01:18:26;;;;;;;6.65;3.60;;;17.70;99.90;;;;;;5087258;28;20111;-72
2021/07/26 01:21:06;;;;;;;5.15;3.47;;;17.80;99.90;;;;;;5086465;28;20036;-71
2021/07/26 01:23:37;;;;;;;8.60;3.90;;;17.80;99.90;;;;;;5083780;28;20032;-71
2021/07/26 01:26:04;;;;;;;6.65;3.88;;;17.70;99.90;;;;;;5083561;28;20064;-71
2021/07/26 01:28:35;;;;;;;5.78;3.75;;;17.70;99.90;;;;;;5083143;28;20064;-72
2021/07/26 01:31:01;;;;;;;6.43;3.88;;;17.70;99.90;;;;;;5082538;28;20658;-71
2021/07/26 01:33:28;;;;;;;6.93;3.75;;;17.70;99.90;;;;;;5083437;28;20036;-71
2021/07/26 01:35:53;;;;;;;7.68;4.13;;;17.70;99.90;;;;;;5088208;28;20495;-71
2021/07/26 01:38:20;;;;;;;8.20;4.20;;;17.80;99.90;;;;;;5057379;28;20032;-71
2021/07/26 01:40:50;;;;;;;8.40;3.97;;;17.80;99.90;;;;;;5065568;28;20678;-71
2021/07/26 01:43:16;;;;;;;7.10;4.20;;;17.70;99.90;;;;;;5088737;28;20047;-71
2021/07/26 01:46:08;;;;;;;7.40;3.70;;;17.80;99.90;;;;;;5055406;28;20500;-71
2021/07/26 01:49:13;;;;;;;8.98;4.35;;;17.80;99.90;;;;;;5051342;28;20515;-73
2021/07/26 01:51:40;;;;;;;7.47;3.75;;;17.80;99.90;;;;;;5054594;28;20047;-71
2021/07/26 01:54:06;;;;;;;8.98;4.03;;;17.80;99.90;;;;;;5084171;28;20455;-71
2021/07/26 01:56:33;;;;;;;8.02;4.28;;;17.80;99.90;;;;;;5088174;28;20035;-71
2021/07/26 01:59:00;;;;;;;7.38;3.95;;;17.70;99.90;;;;;;5081550;28;20039;-71
2021/07/26 02:01:25;;;;;;;12.15;4.30;;;17.80;99.90;;;;;;5087539;28;20051;-71
2021/07/26 02:03:51;;;;;;;7.25;3.80;;;17.70;99.90;;;;;;5087030;28;20028;-71
2021/07/26 02:06:16;;;;;;;7.63;3.85;;;17.70;99.90;;;;;;5055589;28;20699;-71
2021/07/26 02:08:42;;;;;;;6.47;3.58;;;17.70;99.90;;;;;;5087959;28;20510;-71
2021/07/26 02:11:08;;;;;;;9.00;4.18;;;17.70;99.90;;;;;;5088573;28;20028;-71
2021/07/26 02:13:36;;;;;;;10.52;4.03;;;17.70;99.90;;;;;;5088514;28;20035;-71
2021/07/26 02:16:03;;;;;;;9.68;4.53;;;17.70;99.90;;;;;;5082489;28;20214;-71
2021/07/26 02:18:28;;;;;;;9.90;4.35;;;17.60;99.90;;;;;;5058729;28;20029;-71
2021/07/26 02:20:54;;;;;;;7.95;4.30;;;17.60;99.90;;;;;;5059705;28;20040;-71
2021/07/26 02:23:20;;;;;;;7.40;3.90;;;17.70;99.90;;;;;;5084776;28;20418;-71
2021/07/26 02:25:45;;;;;;;7.43;4.15;;;17.60;99.90;;;;;;5063025;28;20400;-71
2021/07/26 02:28:11;;;;;;;9.30;4.35;;;17.60;99.90;;;;;;5085853;28;20035;-71
2021/07/26 02:30:37;;;;;;;8.48;4.15;;;17.60;99.90;;;;;;5087534;28;20036;-70
2021/07/26 02:33:02;;;;;;;7.05;3.75;;;17.60;99.90;;;;;;5059952;28;20165;-71
2021/07/26 02:35:28;;;;;;;10.20;4.40;;;17.60;99.90;;;;;;5059099;28;20035;-72
2021/07/26 02:37:54;;;;;;;7.60;4.07;;;17.50;99.90;;;;;;5061614;28;20430;-72
2021/07/26 02:40:21;;;;;;;10.10;4.15;;;17.50;99.90;;;;;;5083257;28;20113;-71
2021/07/26 02:42:46;;;;;;;8.93;4.05;;;17.50;99.90;;;;;;5057054;28;20089;-71
2021/07/26 02:45:12;;;;;;;10.45;4.60;;;17.50;99.90;;;;;;5085684;28;20032;-72
2021/07/26 02:47:38;;;;;;;8.48;4.28;;;17.40;99.90;;;;;;5049779;28;20036;-71
2021/07/26 02:50:04;;;;;;;8.68;4.10;;;17.40;99.90;;;;;;5085169;28;20502;-71
2021/07/26 02:52:30;;;;;;;9.30;4.25;;;17.40;99.90;;;;;;5084192;28;20036;-71
2021/07/26 02:54:56;;;;;;;7.32;4.20;;;17.50;99.90;;;;;;5053748;28;20032;-72
2021/07/26 02:57:21;;;;;;;7.68;4.07;;;17.50;99.90;;;;;;5082896;28;20032;-71
2021/07/26 02:59:47;;;;;;;12.57;4.88;;;17.40;99.90;;;;;;5086374;28;20042;-71
2021/07/26 03:02:12;;;;;;;10.00;4.15;;;17.40;99.90;;;;;;5086012;28;20033;-71
2021/07/26 03:04:38;;;;;;;8.63;4.57;;;17.30;99.90;;;;;;5083547;28;20043;-72
2021/07/26 03:07:04;;;;;;;8.60;4.47;;;17.40;99.90;;;;;;5084379;28;20093;-71
2021/07/26 03:09:30;;;;;;;12.23;5.38;;;17.40;99.90;;;;;;5087070;28;20119;-70
2021/07/26 03:11:55;;;;;;;9.18;4.15;;;17.30;99.90;;;;;;5085778;28;20032;-71
2021/07/26 03:14:21;;;;;;;12.63;4.72;;;17.30;99.90;;;;;;5061577;28;20388;-71
2021/07/26 03:16:47;;;;;;;10.85;4.70;;;17.40;99.90;;;;;;5087395;28;20040;-71
2021/07/26 03:19:12;;;;;;;9.80;5.18;;;17.30;99.90;;;;;;5086576;28;20639;-71
2021/07/26 03:21:38;;;;;;;11.85;4.68;;;17.30;99.90;;;;;;5085951;28;20496;-70
2021/07/26 03:24:04;;;;;;;8.63;4.75;;;17.30;99.90;;;;;;5082466;28;20044;-71
2021/07/26 03:26:31;;;;;;;12.35;4.93;;;17.30;99.90;;;;;;5061325;28;20123;-71
2021/07/26 03:28:56;;;;;;;9.65;5.20;;;17.20;99.90;;;;;;5056000;28;20056;-70
2021/07/26 03:31:22;;;;;;;15.20;5.57;;;17.30;99.90;;;;;;5074683;28;20035;-70
2021/07/26 03:33:48;;;;;;;9.35;5.35;;;17.30;99.90;;;;;;5056230;28;20032;-70
2021/07/26 03:36:14;;;;;;;8.98;5.00;;;17.20;99.90;;;;;;5080591;28;20033;-70
2021/07/26 03:38:40;;;;;;;10.80;4.78;;;17.30;99.90;;;;;;5087306;28;20090;-71
2021/07/26 03:41:06;;;;;;;9.98;5.38;;;17.20;99.90;;;;;;5081064;28;20032;-71
2021/07/26 03:43:32;;;;;;;12.43;4.95;;;17.20;99.90;;;;;;5087076;28;20047;-70
2021/07/26 03:45:58;;;;;;;9.75;5.43;;;17.20;99.90;;;;;;5085541;28;20546;-71
2021/07/26 03:48:23;;;;;;;8.05;4.82;;;17.20;99.90;;;;;;5086976;28;20471;-71
2021/07/26 03:50:49;;;;;;;7.95;5.00;;;17.20;99.90;;;;;;5085938;28;20042;-71
2021/07/26 03:53:17;;;;;;;9.82;5.00;;;17.20;99.90;;;;;;5073805;28;20059;-70
2021/07/26 03:55:43;;;;;;;10.40;5.50;;;17.30;99.90;;;;;;5077440;28;20039;-70
2021/07/26 03:58:09;;;;;;;9.35;4.57;;;17.30;99.90;;;;;;5061442;28;20032;-71
2021/07/26 04:00:34;;;;;;;13.73;5.10;;;17.30;99.90;;;;;;5084743;28;20492;-71
2021/07/26 04:03:25;;;;;;;10.52;5.30;;;17.30;99.90;;;;;;5058990;28;20163;-71
2021/07/26 04:08:23;;;;;;;8.95;4.38;;;17.30;99.90;;;;;;5090344;28;19971;-71
2021/07/26 04:10:54;;;;;;;7.20;4.20;;;17.40;99.90;;;;;;5089874;28;20020;-70
2021/07/26 04:13:20;;;;;;;9.73;4.82;;;17.40;99.90;;;;;;5083882;28;20028;-71
2021/07/26 04:15:48;;;;;;;7.97;4.10;;;17.40;99.90;;;;;;5066576;28;20031;-72
2021/07/26 04:18:14;;;;;;;8.70;4.95;;;17.40;99.90;;;;;;5089971;28;20032;-71
2021/07/26 04:20:40;;;;;;;8.38;4.43;;;17.40;99.90;;;;;;5087089;28;20040;-71
2021/07/26 04:23:06;;;;;;;9.98;4.65;;;17.40;99.90;;;;;;5061734;28;20040;-71
2021/07/26 04:25:32;;;;;;;11.43;4.60;;;17.40;99.90;;;;;;5090665;28;20082;-71
2021/07/26 04:27:57;;;;;;;8.20;4.85;;;17.40;99.90;;;;;;5089606;28;20032;-71
2021/07/26 04:30:23;;;;;;;11.05;4.70;;;17.40;99.90;;;;;;5087669;28;20035;-71
2021/07/26 04:32:48;;;;;;;9.95;4.22;;;17.40;99.90;;;;;;5071804;28;20025;-71
2021/07/26 04:35:16;;;;;;;8.63;4.35;;;17.50;99.90;;;;;;5071877;28;20032;-71
2021/07/26 04:37:42;;;;;;;12.95;4.63;;;17.50;99.90;;;;;;5053665;28;20701;-71
2021/07/26 04:40:09;;;;;;;6.68;3.75;;;17.50;99.90;;;;;;5073532;28;20032;-71
2021/07/26 04:42:39;;;;;;;9.82;3.95;;;17.50;99.90;;;;;;5074911;28;20487;-71
2021/07/26 04:45:06;;;;;;;6.68;3.90;;;17.60;99.90;;;;;;5060819;28;20050;-70
2021/07/26 04:47:31;;;;;;;11.38;4.63;;;17.60;99.90;;;;;;5087546;28;20054;-71
2021/07/26 04:49:57;;;;;;;12.15;4.60;;;17.60;99.90;;;;;;5059736;28;20488;-71
2021/07/26 04:52:23;;;;;;;7.15;3.75;;;17.70;99.90;;;;;;5053525;28;20029;-71
2021/07/26 04:54:48;;;;;;;12.77;4.45;;;17.70;99.90;;;;;;5074989;28;20025;-70
2021/07/26 04:57:14;;;;;;;12.10;4.40;;;17.70;99.90;;;;;;5074831;28;20311;-71
2021/07/26 04:59:39;;;;;;;10.07;4.22;;;17.70;99.90;;;;;;5074567;28;20048;-70
2021/07/26 05:02:05;;;;;;;11.05;3.70;;;17.80;99.90;;;;;;5072197;28;20570;-71
2021/07/26 05:04:31;;;;;;;7.18;3.40;;;17.70;99.90;;;;;;5070252;28;20071;-71
2021/07/26 05:07:01;;;;;;;8.05;3.88;;;17.80;99.90;;;;;;5063561;28;20033;-70
2021/07/26 05:09:27;;;;;;;7.53;4.00;;;17.80;99.90;;;;;;5089227;28;20040;-66
2021/07/26 05:11:52;;;;;;;9.10;4.32;;;17.80;99.90;;;;;;5055663;28;20043;-70
2021/07/26 05:14:18;;;;;;;7.65;4.13;;;17.90;99.90;;;;;;5057079;28;20036;-70
2021/07/26 05:16:45;;;;;;;8.23;4.53;;;18.00;99.90;;;;;;5078183;28;20036;-71
2021/07/26 05:19:10;;;;;;;7.40;3.67;;;18.00;99.90;;;;;;5076743;28;20036;-70
2021/07/26 05:21:36;;;;;;;7.53;4.32;;;18.00;99.90;;;;;;5064729;28;20095;-71
2021/07/26 05:24:02;;;;;;;7.88;3.80;;;18.10;99.90;;;;;;5084692;28;20102;-71
2021/07/26 05:26:28;;;;;;;7.35;4.47;;;18.20;99.90;;;;;;5058893;28;20099;-70
2021/07/26 05:28:54;;;;;;;9.40;4.90;;;18.20;99.90;;;;;;5060826;28;20033;-71
2021/07/26 05:31:19;;;;;;;6.65;3.80;;;18.30;99.90;;;;;;5088537;28;20394;-70
2021/07/26 05:33:45;;;;;;;13.10;4.63;;;18.40;99.90;;;;;;5081109;28;20036;-72
2021/07/26 05:36:11;;;;;;;6.47;3.58;;;18.50;99.90;;;;;;5086448;28;20246;-70
2021/07/26 05:38:36;;;;;;;11.88;3.40;;;18.70;99.90;;;;;;5085884;28;20036;-70
2021/07/26 05:41:02;;;;;;;7.20;3.03;;;18.70;99.90;;;;;;5083917;28;20563;-72
2021/07/26 05:43:28;;;;;;;6.00;3.30;;;19.00;99.90;;;;;;5087179;28;20051;-72
2021/07/26 05:45:53;;;;;;;5.10;3.10;;;19.10;99.90;;;;;;5079303;28;20083;-72
2021/07/26 05:48:19;;;;;;;7.38;3.50;;;19.40;99.90;;;;;;5066891;28;20066;-74
2021/07/26 05:50:44;;;;;;;9.52;3.40;;;19.60;99.90;;;;;;5071524;28;20036;-72
2021/07/26 05:53:10;;;;;;;7.35;3.17;;;19.60;99.90;;;;;;5078538;28;20444;-72
2021/07/26 05:55:38;;;;;;;7.25;3.20;;;19.60;99.90;;;;;;5070794;28;20756;-73
2021/07/26 05:58:04;;;;;;;6.18;3.20;;;19.60;99.90;;;;;;5075097;28;20138;-72
2021/07/26 06:00:40;;;;;;;3.55;2.17;;;19.60;99.90;;;;;;5087189;28;20036;-72
2021/07/26 06:03:05;;;;;;;10.32;2.97;;;19.70;99.90;;;;;;5082823;28;20716;-72
2021/07/26 06:05:31;;;;;;;5.70;2.90;;;19.80;99.90;;;;;;5078849;28;20036;-72
2021/07/26 06:07:57;;;;;;;8.80;2.70;;;19.80;99.90;;;;;;5082254;28;20037;-72
2021/07/26 06:10:22;;;;;;;8.88;2.78;;;20.00;99.90;;;;;;5056969;28;20540;-72
2021/07/26 06:12:48;;;;;;;8.25;3.50;;;20.20;99.90;;;;;;5058080;28;20035;-71
2021/07/26 06:15:13;;;;;;;6.32;2.63;;;20.30;99.90;;;;;;5055147;28;20426;-71
2021/07/26 06:17:39;;;;;;;5.85;2.90;;;20.40;99.90;;;;;;5083817;28;20105;-72
2021/07/26 06:20:06;;;;;;;4.53;2.78;;;20.60;99.90;;;;;;5087346;28;20218;-73
2021/07/26 06:22:32;;;;;;;6.78;3.28;;;20.60;99.90;;;;;;5082364;28;20021;-72
2021/07/26 06:24:57;;;;;;;7.32;2.88;;;20.80;99.90;;;;;;5087050;28;20035;-69
2021/07/26 06:27:23;;;;;;;4.70;3.17;;;20.90;99.90;;;;;;5074972;28;20051;-69
2021/07/26 06:29:52;;;;;;;4.32;2.38;;;20.90;99.90;;;;;;5057749;28;20071;-69
2021/07/26 06:32:18;;;;;;;12.27;2.83;;;20.90;99.90;;;;;;5087451;28;20115;-69
2021/07/26 06:34:44;;;;;;;5.05;2.95;;;20.80;99.90;;;;;;5079762;28;20107;-69
2021/07/26 06:37:09;;;;;;;4.63;2.53;;;20.70;99.90;;;;;;5086793;28;20123;-69
2021/07/26 06:39:35;;;;;;;8.68;3.05;;;20.70;99.90;;;;;;5087255;28;20032;-70
2021/07/26 06:42:01;;;;;;;7.88;3.53;;;20.80;99.90;;;;;;5061484;28;20105;-69
2021/07/26 06:44:26;;;;;;;6.88;3.00;;;20.90;99.90;;;;;;5084218;28;20627;-70
2021/07/26 06:46:52;;;;;;;10.70;3.38;;;21.20;99.90;;;;;;5084245;28;20036;-69
2021/07/26 06:49:17;;;;;;;6.88;3.45;;;21.40;99.90;;;;;;5081063;28;20066;-69
2021/07/26 06:51:43;;;;;;;9.45;2.85;;;21.60;99.90;;;;;;5078407;28;20081;-70
2021/07/26 06:54:08;;;;;;;6.05;3.55;;;21.60;99.90;;;;;;5060443;28;20097;-69
2021/07/26 06:56:34;;;;;;;13.65;4.40;;;21.70;99.90;;;;;;5083186;28;20039;-69
2021/07/26 06:58:59;;;;;;;5.38;3.95;;;21.70;99.90;;;;;;5084602;28;20032;-69
2021/07/26 07:01:25;;;;;;;7.82;4.53;;;21.60;99.90;;;;;;5083698;28;20036;-69
2021/07/26 07:03:51;;;;;;;7.63;4.45;;;21.50;99.90;;;;;;5084345;28;20028;-69
2021/07/26 07:06:17;;;;;;;10.82;3.75;;;21.40;99.90;;;;;;5076807;28;20036;-70
2021/07/26 07:08:44;;;;;;;6.82;4.82;;;21.30;99.90;;;;;;5054320;28;20059;-69
2021/07/26 07:11:12;;;;;;;5.50;3.88;;;21.20;99.90;;;;;;5070278;28;20378;-69
2021/07/26 07:13:40;;;;;;;8.85;4.45;;;21.20;99.90;;;;;;5058543;28;20108;-70
2021/07/26 07:16:09;;;;;;;6.28;3.60;;;21.20;99.90;;;;;;5085271;28;20043;-70
2021/07/26 07:18:35;;;;;;;9.43;4.05;;;21.20;99.90;;;;;;5079835;28;20048;-70
2021/07/26 07:21:01;;;;;;;12.32;4.03;;;21.20;99.90;;;;;;5084139;28;20089;-70
2021/07/26 07:23:27;;;;;;;11.38;4.80;;;21.20;99.90;;;;;;5061998;28;20044;-70
2021/07/26 07:25:52;;;;;;;10.50;4.65;;;21.00;99.90;;;;;;5053239;28;20105;-70
2021/07/26 07:28:18;;;;;;;7.65;4.15;;;21.00;99.90;;;;;;5063424;28;20039;-70
2021/07/26 07:30:43;;;;;;;6.80;4.15;;;20.90;99.90;;;;;;5061439;28;20028;-71
2021/07/26 07:33:09;;;;;;;7.32;4.80;;;20.80;99.90;;;;;;5075535;28;20040;-70
2021/07/26 07:35:35;;;;;;;9.70;4.30;;;20.80;99.90;;;;;;5084196;28;20088;-70
2021/07/26 07:38:01;;;;;;;7.32;4.22;;;20.80;99.90;;;;;;5082960;28;20032;-70
2021/07/26 07:40:26;;;;;;;6.93;4.10;;;20.80;99.90;;;;;;5081805;28;20036;-71
2021/07/26 07:42:53;;;;;;;7.82;3.95;;;20.70;99.90;;;;;;5056739;28;20528;-70
2021/07/26 07:45:18;;;;;;;7.28;4.47;;;20.70;99.90;;;;;;5080897;28;20035;-71
2021/07/26 07:47:44;;;;;;;8.93;3.97;;;20.80;99.90;;;;;;5060075;28;20056;-70
2021/07/26 07:50:12;;;;;;;7.13;4.50;;;20.90;99.90;;;;;;5083629;28;20028;-70
2021/07/26 07:52:39;;;;;;;8.90;4.75;;;20.80;99.90;;;;;;5044894;28;20047;-71
2021/07/26 07:55:06;;;;;;;11.38;5.50;;;20.80;99.90;;;;;;5084777;28;20044;-70
2021/07/26 07:57:35;;;;;;;13.48;6.97;;;20.70;99.90;;;;;;5083192;28;20166;-70
2021/07/26 08:00:01;;;;;;;10.23;7.30;;;20.60;99.90;;;;;;5082268;28;20086;-71
2021/07/26 08:02:26;;;;;;;11.00;7.82;;;20.50;99.90;;;;;;5058944;28;20403;-70
2021/07/26 08:04:52;;;;;;;11.05;7.88;;;20.60;99.90;;;;;;5058426;28;20131;-70
2021/07/26 08:07:18;;;;;;;14.45;8.38;;;20.80;99.90;;;;;;5064797;28;20107;-70
2021/07/26 08:09:43;;;;;;;16.92;8.32;;;21.00;99.90;;;;;;5082584;28;21316;-71
2021/07/26 08:12:09;;;;;;;14.93;8.88;;;21.30;99.90;;;;;;5058128;28;20036;-70
2021/07/26 08:14:34;;;;;;;12.88;8.45;;;21.70;99.90;;;;;;5077457;28;20047;-70
2021/07/26 08:17:01;;;;;;;15.10;8.48;;;21.80;99.90;;;;;;5083175;28;20496;-70
2021/07/26 08:19:27;;;;;;;14.13;7.88;;;21.70;99.90;;;;;;5055806;28;20601;-70
2021/07/26 08:21:53;;;;;;;12.00;7.53;;;21.70;99.90;;;;;;5079431;28;20119;-70
2021/07/26 08:24:18;;;;;;;13.65;8.77;;;21.50;99.90;;;;;;5052041;28;20043;-70
2021/07/26 08:26:44;;;;;;;15.20;9.18;;;21.60;99.90;;;;;;5072258;28;20476;-71
2021/07/26 08:29:09;;;;;;;17.42;9.35;;;21.60;99.90;;;;;;5082109;28;20549;-71
2021/07/26 08:31:35;;;;;;;18.75;9.75;;;21.70;99.90;;;;;;5077134;28;20557;-70
2021/07/26 08:34:00;;;;;;;18.73;10.95;;;21.50;99.90;;;;;;5056136;28;20039;-71
2021/07/26 08:36:26;;;;;;;19.83;12.15;;;21.50;99.90;;;;;;5050696;28;20187;-71
2021/07/26 08:38:51;;;;;;;18.50;9.93;;;21.60;99.90;;;;;;5066125;28;20447;-70
2021/07/26 08:41:19;;;;;;;17.55;11.07;;;21.80;99.90;;;;;;5081986;28;20050;-70
2021/07/26 08:43:44;;;;;;;17.90;10.93;;;21.90;99.90;;;;;;5085265;28;20213;-71
2021/07/26 08:46:11;;;;;;;17.30;10.77;;;22.00;99.90;;;;;;5086855;28;20105;-70
2021/07/26 08:48:38;;;;;;;18.45;11.85;;;22.10;99.90;;;;;;5081978;28;20035;-70
2021/07/26 08:51:05;;;;;;;17.35;11.43;;;22.10;99.90;;;;;;5079526;28;20024;-71
2021/07/26 08:53:37;;;;;;;17.50;10.50;;;22.10;99.90;;;;;;5084835;28;20074;-70
2021/07/26 08:56:02;;;;;;;14.10;9.75;;;22.10;99.90;;;;;;5076327;28;20020;-71
2021/07/26 08:58:28;;;;;;;17.17;9.77;;;22.20;99.90;;;;;;5073670;28;20404;-70
2021/07/26 09:00:55;;;;;;;20.70;9.05;;;22.10;99.90;;;;;;5084779;28;20090;-71
2021/07/26 09:03:21;;;;;;;12.50;8.02;;;22.00;99.90;;;;;;5086193;28;20036;-70
2021/07/26 09:05:46;;;;;;;10.73;7.28;;;22.00;99.90;;;;;;5087858;28;20032;-71
2021/07/26 09:08:12;;;;;;;10.30;6.80;;;22.10;99.90;;;;;;5087021;28;20090;-71
2021/07/26 09:10:43;;;;;;;10.02;5.53;;;22.30;99.90;;;;;;5088884;28;20035;-70
2021/07/26 09:13:10;;;;;;;9.68;4.80;;;22.50;99.90;;;;;;5085884;28;20039;-71
2021/07/26 09:15:37;;;;;;;6.13;4.07;;;22.50;99.90;;;;;;5053200;28;20032;-70
2021/07/26 09:18:07;;;;;;;6.57;4.20;;;22.50;99.90;;;;;;5082789;28;20109;-70
2021/07/26 09:20:33;;;;;;;;;;;22.40;99.90;;;;;;5080184;28;20048;-70
2021/07/26 09:23:14;;;;;;;4.85;2.80;;;22.40;99.90;;;;;;5057861;28;19923;-70
2021/07/26 09:25:48;;;;;;;6.35;2.72;;;22.60;99.90;;;;;;5084759;28;20051;-71
2021/07/26 09:28:15;;;;;;;5.22;2.17;;;22.70;99.90;;;;;;5055809;28;20035;-71
2021/07/26 09:30:51;;;;;;;5.45;2.28;;;22.90;99.90;;;;;;5083296;28;20082;-70
2021/07/26 09:33:21;;;;;;;5.20;2.13;;;23.00;99.90;;;;;;5084348;28;20115;-70
2021/07/26 09:36:20;;;;;;;4.78;2.50;;;23.20;99.90;;;;;;5085891;28;20043;-71
2021/07/26 09:38:48;;;;;;;3.17;2.10;;;23.30;99.90;;;;;;5080686;28;20103;-70
2021/07/26 09:41:14;;;;;;;3.75;2.20;;;23.40;99.90;;;;;;5084077;28;20048;-70
2021/07/26 09:43:41;;;;;;;5.50;2.60;;;23.50;99.90;;;;;;5053435;28;20036;-70
2021/07/26 09:46:07;;;;;;;5.40;2.70;;;23.60;99.90;;;;;;5058555;28;20032;-70
2021/07/26 09:48:33;;;;;;;5.22;3.00;;;23.50;99.90;;;;;;5057051;28;20028;-70
2021/07/26 09:51:01;;;;;;;3.13;2.17;;;23.70;99.90;;;;;;5086334;28;20034;-71
2021/07/26 09:53:28;;;;;;;5.18;2.72;;;23.90;99.90;;;;;;5083959;28;20119;-71
2021/07/26 09:55:57;;;;;;;5.93;3.22;;;24.00;99.90;;;;;;5059569;28;20125;-70
2021/07/26 09:58:49;;;;;;;4.63;2.97;;;24.10;99.90;;;;;;5077632;28;20111;-70
2021/07/26 10:01:15;;;;;;;6.07;2.65;;;24.20;99.90;;;;;;5066717;28;20055;-70
2021/07/26 10:03:43;;;;;;;4.10;2.88;;;24.10;99.90;;;;;;5083854;28;20078;-71
2021/07/26 10:06:10;;;;;;;4.40;3.00;;;23.90;99.90;;;;;;5073754;28;20042;-70
2021/07/26 10:08:36;;;;;;;4.90;2.38;;;23.70;99.90;;;;;;5072172;28;20041;-71
2021/07/26 10:11:02;;;;;;;4.25;2.40;;;23.70;99.90;;;;;;5076731;28;20047;-70
2021/07/26 10:13:29;;;;;;;4.88;3.47;;;23.80;99.90;;;;;;5069488;28;20036;-71
2021/07/26 10:15:55;;;;;;;9.10;2.65;;;23.90;99.90;;;;;;5074384;28;20054;-70
2021/07/26 10:18:21;;;;;;;5.75;2.47;;;24.10;99.90;;;;;;5085369;28;20391;-70
2021/07/26 10:21:09;;;;;;;7.03;2.63;;;24.50;99.90;;;;;;5052441;28;20099;-71
2021/07/26 10:23:38;;;;;;;3.28;1.40;;;24.80;99.90;;;;;;5080854;28;20036;-71
2021/07/26 10:26:07;;;;;;;2.70;1.38;;;25.00;99.90;;;;;;5056868;28;20091;-71
2021/07/26 10:28:51;;;;;;;2.08;1.27;;;25.10;99.90;;;;;;5078858;28;20097;-71
2021/07/26 10:31:29;;;;;;;3.13;1.08;;;25.20;99.90;;;;;;5080083;28;20044;-71
2021/07/26 10:34:01;;;;;;;2.13;1.33;;;25.10;99.90;;;;;;5081096;28;20123;-70
2021/07/26 10:36:42;;;;;;;3.47;1.60;;;25.00;99.90;;;;;;5046645;28;20090;-71
2021/07/26 10:39:08;;;;;;;3.92;2.25;;;25.00;99.90;;;;;;5075708;28;20412;-70
2021/07/26 10:41:43;;;;;;;3.88;1.77;;;24.80;99.90;;;;;;5076737;28;20563;-71
2021/07/26 10:44:29;;;;;;;5.03;1.83;;;24.90;99.90;;;;;;5085734;28;20504;-71
2021/07/26 10:46:58;;;;;;;2.20;1.70;;;25.10;99.90;;;;;;5037184;28;20048;-70
2021/07/26 10:49:45;;;;;;;2.65;1.15;;;25.10;99.90;;;;;;5085140;28;20054;-70
2021/07/26 10:52:23;;;;;;;1.98;1.00;;;25.00;99.90;;;;;;5076305;28;20411;-70
2021/07/26 10:54:50;;;;;;;2.47;1.00;;;24.90;99.90;;;;;;5079312;28;20127;-70
2021/07/26 10:57:39;;;;;;;4.35;1.45;;;25.00;99.90;;;;;;5077746;28;20026;-71
2021/07/26 11:00:08;;;;;;;1.65;1.10;;;25.30;99.90;;;;;;5067074;28;20032;-72
2021/07/26 11:02:35;;;;;;;3.15;1.20;;;25.10;99.90;;;;;;5066272;28;20547;-70
2021/07/26 11:05:25;;;;;;;3.40;0.88;;;25.00;99.90;;;;;;5052167;28;20682;-70
2021/07/26 11:08:13;;;;;;;2.22;1.02;;;24.90;99.90;;;;;;5054634;28;20040;-72
2021/07/26 11:10:49;;;;;;;4.38;1.23;;;24.80;99.90;;;;;;5079767;28;20032;-70
2021/07/26 11:13:15;;;;;;;2.53;1.25;;;25.10;99.90;;;;;;5083484;28;20034;-70
2021/07/26 11:15:44;;;;;;;3.22;0.98;;;25.10;99.90;;;;;;5081090;28;20031;-71
2021/07/26 11:18:45;;;;;;;4.40;1.27;;;25.20;99.90;;;;;;5051479;28;20036;-70
2021/07/26 11:21:16;;;;;;;2.47;1.23;;;25.20;99.90;;;;;;5053188;28;20299;-70
2021/07/26 11:23:46;;;;;;;3.85;1.60;;;25.40;99.90;;;;;;5075708;28;20044;-70
2021/07/26 11:26:19;;;;;;;2.35;1.20;;;25.60;99.90;;;;;;5052027;28;20476;-70
2021/07/26 11:28:47;;;;;;;4.30;1.50;;;25.50;99.90;;;;;;5081120;28;20055;-70
2021/07/26 11:31:21;;;;;;;3.70;1.17;;;25.40;99.90;;;;;;5052938;28;20615;-70
2021/07/26 11:33:46;;;;;;;4.00;1.10;;;25.60;99.90;;;;;;5054735;28;20049;-70
2021/07/26 11:36:12;;;;;;;1.70;0.80;;;25.70;99.90;;;;;;5054406;28;20044;-70
2021/07/26 11:38:57;;;;;;;7.13;1.08;;;25.40;99.90;;;;;;5084374;28;20131;-70
2021/07/26 11:41:25;;;;;;;4.90;1.50;;;25.10;99.90;;;;;;5085502;28;20118;-70
2021/07/26 11:43:50;;;;;;;2.67;1.20;;;24.80;99.90;;;;;;5079390;28;20177;-70
2021/07/26 11:46:16;;;;;;;4.68;1.02;;;24.50;99.90;;;;;;5053522;28;20148;-70
2021/07/26 11:48:42;;;;;;;4.25;1.08;;;24.20;99.90;;;;;;5078623;28;20032;-70
2021/07/26 11:51:24;;;;;;;1.63;0.82;;;24.10;99.90;;;;;;5059830;28;20111;-70
2021/07/26 11:54:08;;;;;;;1.42;0.75;;;24.00;99.90;;;;;;5084747;28;20496;-70
2021/07/26 11:56:35;;;;;;;4.75;1.38;;;24.10;99.90;;;;;;5083770;28;20043;-70
2021/07/26 11:59:22;;;;;;;1.92;0.90;;;24.10;99.90;;;;;;5061722;28;20044;-70
2021/07/26 12:01:55;;;;;;;2.97;0.95;;;24.50;99.90;;;;;;5075504;28;20036;-70
2021/07/26 12:04:24;;;;;;;2.47;0.98;;;24.80;99.90;;;;;;5086108;28;20036;-71
2021/07/26 12:06:50;;;;;;;3.55;1.05;;;24.70;99.90;;;;;;5086062;28;20504;-70
2021/07/26 12:09:16;;;;;;;1.77;0.88;;;24.80;99.90;;;;;;5083953;28;20054;-70
2021/07/26 12:11:42;;;;;;;1.58;0.93;;;24.90;99.90;;;;;;5073762;28;20024;-70
2021/07/26 12:14:24;;;;;;;3.88;1.17;;;24.80;99.90;;;;;;5053727;28;20047;-70
2021/07/26 12:16:57;;;;;;;1.80;1.17;;;24.70;99.90;;;;;;5085694;28;20070;-70
2021/07/26 12:19:22;;;;;;;1.73;1.10;;;24.60;99.90;;;;;;5086310;28;20508;-69
2021/07/26 12:21:48;;;;;;;2.38;1.30;;;24.50;99.90;;;;;;5089813;28;20048;-70
2021/07/26 12:24:14;;;;;;;1.30;0.90;;;24.50;99.90;;;;;;5077325;28;20090;-69
2021/07/26 12:26:59;;;;;;;2.45;1.05;;;24.40;99.90;;;;;;5057900;28;20036;-69
2021/07/26 12:29:26;;;;;;;3.88;1.38;;;24.40;99.90;;;;;;5082242;28;20669;-69
2021/07/26 12:32:04;;;;;;;2.47;1.80;;;24.30;99.90;;;;;;5055417;28;20036;-69
2021/07/26 12:34:30;;;;;;;9.40;2.00;;;24.50;99.90;;;;;;5078852;28;20122;-73
2021/07/26 12:37:06;;;;;;;3.20;1.95;;;24.60;99.90;;;;;;5089904;28;20539;-70
2021/07/26 12:39:39;;;;;;;3.88;2.10;;;24.90;99.90;;;;;;5088873;28;20052;-70
2021/07/26 12:42:21;;;;;;;4.97;1.75;;;25.00;99.90;;;;;;5085706;28;20677;-69
2021/07/26 12:44:47;;;;;;;2.55;1.35;;;25.10;99.90;;;;;;5084903;28;20047;-69
2021/07/26 12:47:26;;;;;;;2.22;1.30;;;25.20;99.90;;;;;;5086630;28;20036;-71
2021/07/26 12:49:52;;;;;;;3.55;1.42;;;25.20;99.90;;;;;;5057575;28;20048;-69
2021/07/26 12:52:18;;;;;;;7.82;1.10;;;25.20;99.90;;;;;;5089742;28;20032;-69
2021/07/26 12:54:44;;;;;;;4.32;1.50;;;25.00;99.90;;;;;;5062044;28;20495;-69